createdAt,value
2017-11-23T00:00:58.911Z,82.10
2017-11-23T00:03:28.252Z,82.40
2017-11-23T00:05:57.118Z,84.10
2017-11-23T00:08:24.665Z,84.10
2017-11-23T00:10:53.079Z,82.80
2017-11-23T00:13:20.616Z,82.80
2017-11-23T00:15:48.186Z,83.00
2017-11-23T00:18:16.488Z,83.00
2017-11-23T00:20:45.513Z,82.90
2017-11-23T00:23:13.070Z,82.80
2017-11-23T00:25:41.400Z,81.90
2017-11-23T00:28:08.958Z,81.80
2017-11-23T00:30:36.523Z,81.20
2017-11-23T00:33:05.729Z,81.00
2017-11-23T00:35:35.456Z,79.90
2017-11-23T00:38:02.996Z,79.90
2017-11-23T00:40:31.320Z,80.50
2017-11-23T00:43:00.160Z,80.70
2017-11-23T00:45:27.733Z,81.20
2017-11-23T00:47:55.257Z,82.30
2017-11-23T00:50:23.585Z,82.50
2017-11-23T00:52:51.121Z,82.50
2017-11-23T00:55:20.740Z,84.00
2017-11-23T00:57:49.038Z,82.40
2017-11-23T01:00:17.369Z,81.80
2017-11-23T01:02:44.934Z,81.70
2017-11-23T01:05:12.515Z,82.50
2017-11-23T01:07:40.054Z,82.50
2017-11-23T01:10:08.776Z,81.90
2017-11-23T01:12:37.704Z,81.30
2017-11-23T01:15:05.997Z,82.60
2017-11-23T01:17:35.204Z,81.70
2017-11-23T01:20:02.769Z,81.50
2017-11-23T01:22:36.020Z,81.40
2017-11-23T01:25:04.354Z,80.80
2017-11-23T01:27:31.909Z,80.80
2017-11-23T01:30:00.818Z,81.40
2017-11-23T01:32:28.350Z,81.40
2017-11-23T01:34:56.591Z,80.90
2017-11-23T01:37:24.103Z,81.80
2017-11-23T01:39:52.229Z,81.00
2017-11-23T01:42:19.781Z,80.10
2017-11-23T01:44:47.358Z,81.50
2017-11-23T01:47:14.941Z,83.40
2017-11-23T01:49:44.285Z,82.40
2017-11-23T01:52:11.820Z,82.30
2017-11-23T01:54:40.152Z,82.70
2017-11-23T01:57:09.293Z,82.50
2017-11-23T01:59:36.873Z,83.30
2017-11-23T02:02:04.399Z,83.20
2017-11-23T02:04:31.963Z,82.20
2017-11-23T02:06:59.490Z,82.20
2017-11-23T02:09:27.047Z,81.70
2017-11-23T02:11:55.344Z,84.00
2017-11-23T02:14:24.044Z,84.50
2017-11-23T02:16:52.421Z,82.50
2017-11-23T02:19:19.952Z,82.50
2017-11-23T02:21:48.289Z,83.40
2017-11-23T02:24:16.699Z,83.30
2017-11-23T02:26:44.268Z,83.20
2017-11-23T02:29:12.125Z,82.20
2017-11-23T02:31:41.347Z,82.80
2017-11-23T02:34:08.873Z,83.50
2017-11-23T02:36:37.206Z,82.40
2017-11-23T02:39:05.886Z,82.30
2017-11-23T02:41:33.470Z,81.90
2017-11-23T02:44:01.010Z,81.80
2017-11-23T02:46:29.349Z,82.90
2017-11-23T02:48:56.882Z,82.80
2017-11-23T02:51:25.219Z,84.70
2017-11-23T02:53:55.778Z,84.70
2017-11-23T02:56:23.342Z,83.30
2017-11-23T02:58:52.693Z,82.70
2017-11-23T03:01:21.076Z,82.60
2017-11-23T03:03:50.696Z,83.10
2017-11-23T03:06:19.844Z,83.10
2017-11-23T03:08:48.353Z,82.80
2017-11-23T03:11:15.909Z,83.60
2017-11-23T03:13:44.291Z,82.70
2017-11-23T03:16:11.831Z,82.00
2017-11-23T03:18:39.397Z,82.20
2017-11-23T03:21:07.691Z,81.60
2017-11-23T03:23:35.261Z,82.40
2017-11-23T03:26:03.500Z,82.50
2017-11-23T03:28:31.086Z,82.70
2017-11-23T03:30:58.971Z,82.70
2017-11-23T03:33:28.388Z,83.50
2017-11-23T03:35:56.757Z,83.40
2017-11-23T03:38:24.298Z,82.70
2017-11-23T03:40:52.675Z,84.30
2017-11-23T03:43:20.326Z,84.30
2017-11-23T03:45:48.724Z,85.30
2017-11-23T03:48:17.214Z,85.50
2017-11-23T03:50:44.972Z,85.00
2017-11-23T03:53:15.397Z,85.50
2017-11-23T03:55:43.084Z,86.10
2017-11-23T03:58:11.707Z,85.10
2017-11-23T04:00:40.174Z,85.30
2017-11-23T04:03:07.733Z,85.80
2017-11-23T04:05:35.268Z,86.20
2017-11-23T04:08:03.385Z,86.80
2017-11-23T04:10:31.712Z,85.60
2017-11-23T04:13:00.718Z,85.50
2017-11-23T04:15:29.193Z,86.30
2017-11-23T04:17:56.766Z,86.50
2017-11-23T04:20:24.298Z,86.80
2017-11-23T04:22:52.669Z,87.30
2017-11-23T04:25:20.219Z,87.00
2017-11-23T04:27:48.413Z,87.20
2017-11-23T04:30:16.760Z,87.80
2017-11-23T04:32:45.104Z,88.10
2017-11-23T04:35:13.188Z,88.00
2017-11-23T04:37:40.769Z,88.70
2017-11-23T04:40:09.313Z,88.70
2017-11-23T04:42:37.650Z,88.70
2017-11-23T04:45:05.179Z,88.70
2017-11-23T04:47:33.272Z,89.00
2017-11-23T04:50:01.812Z,89.50
2017-11-23T04:52:30.148Z,89.50
2017-11-23T04:54:58.439Z,89.10
2017-11-23T04:57:26.772Z,88.80
2017-11-23T04:59:55.244Z,88.70
2017-11-23T05:02:23.695Z,89.00
2017-11-23T05:04:51.221Z,89.70
2017-11-23T05:07:19.501Z,90.00
2017-11-23T05:09:47.025Z,89.90
2017-11-23T05:12:17.223Z,89.40
2017-11-23T05:14:44.784Z,89.00
2017-11-23T05:17:12.368Z,87.90
2017-11-23T05:19:39.914Z,86.80
2017-11-23T05:22:07.476Z,87.80
2017-11-23T05:24:35.768Z,88.00
2017-11-23T05:27:04.101Z,87.00
2017-11-23T05:29:32.484Z,86.90
2017-11-23T05:32:00.061Z,87.30
2017-11-23T05:34:27.593Z,86.90
2017-11-23T05:36:58.060Z,87.50
2017-11-23T05:39:26.415Z,87.50
2017-11-23T05:41:53.985Z,87.00
2017-11-23T05:44:21.528Z,87.00
2017-11-23T05:46:49.121Z,85.60
2017-11-23T05:49:16.670Z,85.40
2017-11-23T05:51:44.252Z,85.70
2017-11-23T05:54:12.420Z,86.10
2017-11-23T05:56:39.998Z,86.40
2017-11-23T05:59:07.597Z,86.70
2017-11-23T06:01:35.163Z,85.50
2017-11-23T06:04:02.689Z,85.90
2017-11-23T06:06:30.253Z,86.90
2017-11-23T06:08:58.547Z,88.00
2017-11-23T06:11:27.088Z,87.90
2017-11-23T06:13:54.616Z,87.50
2017-11-23T06:16:23.040Z,87.00
2017-11-23T06:18:51.544Z,87.20
2017-11-23T06:21:20.266Z,87.00
2017-11-23T06:23:47.795Z,87.40
2017-11-23T06:26:15.374Z,87.40
2017-11-23T06:28:43.557Z,87.40
2017-11-23T06:31:11.917Z,87.80
2017-11-23T06:33:40.208Z,86.00
2017-11-23T06:36:07.769Z,86.00
2017-11-23T06:38:35.313Z,85.10
2017-11-23T06:41:03.656Z,84.80
2017-11-23T06:43:31.954Z,86.70
2017-11-23T06:46:00.677Z,86.60
2017-11-23T06:48:28.205Z,87.00
2017-11-23T06:50:55.775Z,86.20
2017-11-23T06:53:23.310Z,86.20
2017-11-23T06:55:50.870Z,85.80
2017-11-23T06:58:18.410Z,86.70
2017-11-23T07:00:47.543Z,87.60
2017-11-23T07:03:15.082Z,87.60
2017-11-23T07:05:43.425Z,87.90
2017-11-23T07:08:10.971Z,87.80
2017-11-23T07:10:38.537Z,88.40
2017-11-23T07:13:07.721Z,87.80
2017-11-23T07:15:35.293Z,87.60
2017-11-23T07:18:06.107Z,89.10
2017-11-23T07:20:34.249Z,89.80
2017-11-23T07:23:02.566Z,88.90
2017-11-23T07:25:30.101Z,88.80
2017-11-23T07:27:58.260Z,88.20
2017-11-23T07:30:26.575Z,88.10
2017-11-23T07:32:54.145Z,87.70
2017-11-23T07:35:21.672Z,88.40
2017-11-23T07:37:49.248Z,88.10
2017-11-23T07:40:18.281Z,88.80
2017-11-23T07:42:48.062Z,88.90
2017-11-23T07:45:15.613Z,89.80
2017-11-23T07:47:43.959Z,86.50
2017-11-23T07:50:12.457Z,86.40
2017-11-23T07:52:40.017Z,86.20
2017-11-23T07:55:07.558Z,86.40
2017-11-23T07:57:35.132Z,86.10
2017-11-23T08:00:02.670Z,85.20
2017-11-23T08:02:31.017Z,85.10
2017-11-23T08:04:58.548Z,84.60
2017-11-23T08:07:27.650Z,84.30
2017-11-23T08:09:55.187Z,84.20
2017-11-23T08:12:22.765Z,84.10
2017-11-23T08:14:51.706Z,83.50
2017-11-23T08:17:20.831Z,81.80
2017-11-23T08:19:49.665Z,81.90
2017-11-23T08:22:17.244Z,81.80
2017-11-23T08:24:44.789Z,82.30
2017-11-23T08:27:12.349Z,82.40
2017-11-23T08:29:40.652Z,81.60
2017-11-23T08:32:08.216Z,81.50
2017-11-23T08:34:36.516Z,80.40
2017-11-23T08:37:06.109Z,80.20
2017-11-23T08:39:33.632Z,80.30
2017-11-23T08:42:01.195Z,80.50
2017-11-23T08:44:28.720Z,80.60
2017-11-23T08:46:56.292Z,80.70
2017-11-23T08:49:24.544Z,80.20
2017-11-23T08:51:52.129Z,78.20
2017-11-23T08:54:20.475Z,78.00
2017-11-23T08:56:51.604Z,80.60
2017-11-23T08:59:19.912Z,80.60
2017-11-23T09:01:48.274Z,81.10
2017-11-23T09:04:15.828Z,81.00
2017-11-23T09:06:44.044Z,80.00
2017-11-23T09:09:11.584Z,79.80
2017-11-23T09:11:39.157Z,80.30
2017-11-23T09:14:06.690Z,80.10
2017-11-23T09:16:34.265Z,76.30
2017-11-23T09:19:02.562Z,73.40
2017-11-23T09:21:30.129Z,73.40
2017-11-23T09:23:57.666Z,74.30
2017-11-23T09:26:25.236Z,74.00
2017-11-23T09:28:52.764Z,75.80
2017-11-23T09:31:21.509Z,75.60
2017-11-23T09:33:49.138Z,74.10
2017-11-23T09:36:16.712Z,73.80
2017-11-23T09:38:44.262Z,72.90
2017-11-23T09:41:11.842Z,71.80
2017-11-23T09:43:40.143Z,67.50
2017-11-23T09:46:07.726Z,67.50
2017-11-23T09:48:35.255Z,67.20
2017-11-23T09:51:02.833Z,66.70
2017-11-23T09:53:31.129Z,65.70
2017-11-23T09:55:59.479Z,65.00
2017-11-23T09:58:28.262Z,64.90
2017-11-23T10:00:56.680Z,65.10
2017-11-23T10:03:24.237Z,64.60
2017-11-23T10:05:51.801Z,66.80
2017-11-23T10:08:19.345Z,64.80
2017-11-23T10:10:47.040Z,65.10
2017-11-23T10:13:15.638Z,64.60
2017-11-23T10:15:44.118Z,64.70
2017-11-23T10:18:11.656Z,64.70
2017-11-23T10:20:39.782Z,62.40
2017-11-23T10:23:07.321Z,62.40
2017-11-23T10:25:35.708Z,62.80
2017-11-23T10:28:03.808Z,62.80
2017-11-23T10:30:32.935Z,62.50
2017-11-23T10:33:00.489Z,62.50
2017-11-23T10:35:28.834Z,61.50
2017-11-23T10:37:56.385Z,60.40
2017-11-23T10:40:23.955Z,59.40
2017-11-23T10:42:51.500Z,60.90
2017-11-23T10:45:20.601Z,64.60
2017-11-23T10:47:54.025Z,64.60
2017-11-23T10:50:22.362Z,63.10
2017-11-23T10:52:52.785Z,63.00
2017-11-23T10:55:20.359Z,66.30
2017-11-23T10:57:47.908Z,68.90
2017-11-23T11:00:16.917Z,72.40
2017-11-23T11:02:45.234Z,71.40
2017-11-23T11:05:12.821Z,71.30
2017-11-23T11:07:41.093Z,69.80
2017-11-23T11:10:08.661Z,64.00
2017-11-23T11:12:36.193Z,66.50
2017-11-23T11:15:03.766Z,63.60
2017-11-23T11:17:32.083Z,67.10
2017-11-23T11:19:59.655Z,66.20
2017-11-23T11:22:28.733Z,61.70
2017-11-23T11:24:56.302Z,61.70
2017-11-23T11:27:23.840Z,63.80
2017-11-23T11:29:51.431Z,66.00
2017-11-23T11:32:18.973Z,66.60
2017-11-23T11:34:46.562Z,66.10
2017-11-23T11:37:14.113Z,64.70
2017-11-23T11:39:42.345Z,62.10
2017-11-23T11:42:09.884Z,64.90
2017-11-23T11:44:37.503Z,62.10
2017-11-23T11:47:05.580Z,60.10
2017-11-23T11:49:35.209Z,61.80
2017-11-23T11:52:03.684Z,58.40
2017-11-23T11:54:31.253Z,57.20
2017-11-23T11:56:58.782Z,61.50
2017-11-23T11:59:27.104Z,58.90
2017-11-23T12:01:55.244Z,58.90
2017-11-23T12:04:23.586Z,58.40
2017-11-23T12:06:51.117Z,58.10
2017-11-23T12:09:19.453Z,59.80
2017-11-23T12:11:47.006Z,59.70
2017-11-23T12:14:27.506Z,58.80
2017-11-23T12:16:56.841Z,63.20
2017-11-23T12:19:36.442Z,63.00
2017-11-23T12:22:15.780Z,60.70
2017-11-23T12:25:04.836Z,61.80
2017-11-23T12:27:44.246Z,61.80
2017-11-23T12:30:11.827Z,61.40
2017-11-23T12:32:39.371Z,55.60
2017-11-23T12:35:06.950Z,60.80
2017-11-23T12:37:35.672Z,57.60
2017-11-23T12:40:04.051Z,59.20
2017-11-23T12:42:32.441Z,58.40
2017-11-23T12:45:01.345Z,60.00
2017-11-23T12:47:29.409Z,61.40
2017-11-23T12:49:57.751Z,63.00
2017-11-23T12:52:25.291Z,63.00
2017-11-23T12:54:52.857Z,59.50
2017-11-23T12:57:20.405Z,57.60
2017-11-23T12:59:48.746Z,57.20
2017-11-23T13:02:16.284Z,57.10
2017-11-23T13:04:43.879Z,57.90
2017-11-23T13:07:11.419Z,56.90
2017-11-23T13:09:39.756Z,60.00
2017-11-23T13:12:07.298Z,60.00
2017-11-23T13:14:34.864Z,59.80
2017-11-23T13:17:03.164Z,58.90
2017-11-23T13:19:31.533Z,58.90
2017-11-23T13:21:59.824Z,55.60
2017-11-23T13:24:27.385Z,55.50
2017-11-23T13:26:55.283Z,57.50
2017-11-23T13:29:23.710Z,56.20
2017-11-23T13:31:51.240Z,56.10
2017-11-23T13:34:18.814Z,56.80
2017-11-23T13:36:47.731Z,58.90
2017-11-23T13:39:16.511Z,59.50
2017-11-23T13:41:45.227Z,59.50
2017-11-23T13:44:13.560Z,62.90
2017-11-23T13:46:41.122Z,62.80
2017-11-23T13:49:08.661Z,66.20
2017-11-23T13:51:36.990Z,64.30
2017-11-23T13:54:04.529Z,64.40
2017-11-23T13:56:33.425Z,65.00
2017-11-23T13:59:01.754Z,66.10
2017-11-23T14:01:29.297Z,65.20
2017-11-23T14:03:57.637Z,65.10
2017-11-23T14:06:26.320Z,65.00
2017-11-23T14:08:54.085Z,63.10
2017-11-23T14:11:22.200Z,65.70
2017-11-23T14:13:50.719Z,63.90
2017-11-23T14:16:19.194Z,68.90
2017-11-23T14:18:47.567Z,68.90
2017-11-23T14:21:15.134Z,69.50
2017-11-23T14:23:42.706Z,70.20
2017-11-23T14:26:10.245Z,68.80
2017-11-23T14:28:38.594Z,70.70
2017-11-23T14:31:06.138Z,70.60
2017-11-23T14:33:33.710Z,69.50
2017-11-23T14:36:01.697Z,68.10
2017-11-23T14:38:29.281Z,69.30
2017-11-23T14:40:56.809Z,70.60
2017-11-23T14:43:25.153Z,70.20
2017-11-23T14:45:52.701Z,70.60
2017-11-23T14:48:20.278Z,70.70
2017-11-23T14:50:47.830Z,68.70
2017-11-23T14:53:16.185Z,68.20
2017-11-23T14:55:43.756Z,68.20
2017-11-23T14:58:11.322Z,66.30
2017-11-23T15:00:38.864Z,68.90
2017-11-23T15:03:06.437Z,68.10
2017-11-23T15:05:33.969Z,69.80
2017-11-23T15:08:01.817Z,59.10
2017-11-23T15:10:29.359Z,58.80
2017-11-23T15:12:56.976Z,58.80
2017-11-23T15:15:25.177Z,58.50
2017-11-23T15:17:52.745Z,61.10
2017-11-23T15:20:20.285Z,62.80
2017-11-23T15:22:47.861Z,62.50
2017-11-23T15:25:15.408Z,61.20
2017-11-23T15:27:42.986Z,58.50
2017-11-23T15:30:11.380Z,57.00
2017-11-23T15:32:38.976Z,56.90
2017-11-23T15:35:07.576Z,58.10
2017-11-23T15:37:35.776Z,60.10
2017-11-23T15:40:03.893Z,58.60
2017-11-23T15:42:32.238Z,60.20
2017-11-23T15:45:00.349Z,60.20
2017-11-23T15:47:27.920Z,61.50
2017-11-23T15:49:55.454Z,59.40
2017-11-23T15:52:23.026Z,58.90
2017-11-23T15:54:50.660Z,59.20
2017-11-23T15:57:19.816Z,61.90
2017-11-23T15:59:47.379Z,62.70
2017-11-23T16:02:14.950Z,63.20
2017-11-23T16:04:42.482Z,63.40
2017-11-23T16:07:10.049Z,65.70
2017-11-23T16:09:37.629Z,65.30
2017-11-23T16:12:05.200Z,63.70
2017-11-23T16:14:32.738Z,66.00
2017-11-23T16:17:00.302Z,65.00
2017-11-23T16:19:28.612Z,65.10
2017-11-23T16:21:56.201Z,64.90
2017-11-23T16:24:23.728Z,62.10
2017-11-23T16:26:51.744Z,60.30
2017-11-23T16:29:19.319Z,61.20
2017-11-23T16:31:47.021Z,62.00
2017-11-23T16:34:14.575Z,61.50
2017-11-23T16:36:42.614Z,59.90
2017-11-23T16:39:10.938Z,60.70
2017-11-23T16:44:50.739Z,59.80
2017-11-23T16:47:23.983Z,63.50
2017-11-23T16:53:13.301Z,60.70
2017-11-23T16:55:46.436Z,62.50
2017-11-23T16:58:17.532Z,62.00
2017-11-23T17:00:48.712Z,64.00
2017-11-23T17:06:26.009Z,62.60
2017-11-23T17:12:23.563Z,62.40
2017-11-23T17:14:56.775Z,63.80
2017-11-23T17:17:24.305Z,61.90
2017-11-23T17:19:52.636Z,61.20
2017-11-23T17:22:20.179Z,61.10
2017-11-23T17:24:47.761Z,60.00
2017-11-23T17:27:16.546Z,58.90
2017-11-23T17:29:44.913Z,60.80
2017-11-23T17:32:13.268Z,62.00
2017-11-23T17:34:40.807Z,62.00
2017-11-23T17:37:08.491Z,64.30
2017-11-23T17:39:36.057Z,64.10
2017-11-23T17:42:03.634Z,62.80
2017-11-23T17:44:31.249Z,63.50
2017-11-23T17:46:58.776Z,64.70
2017-11-23T17:49:26.384Z,65.20
2017-11-23T17:51:53.924Z,66.10
2017-11-23T17:54:21.496Z,66.40
2017-11-23T17:56:49.054Z,64.80
2017-11-23T17:59:17.426Z,66.00
2017-11-23T18:01:45.026Z,65.90
2017-11-23T18:04:12.601Z,65.00
2017-11-23T18:06:40.906Z,65.10
2017-11-23T18:09:08.592Z,65.10
2017-11-23T18:11:36.127Z,66.30
2017-11-23T18:14:04.553Z,68.10
2017-11-23T18:16:33.013Z,67.60
2017-11-23T18:19:01.344Z,67.00
2017-11-23T18:21:29.680Z,66.20
2017-11-23T18:23:57.296Z,67.40
2017-11-23T18:26:24.838Z,69.10
2017-11-23T18:28:53.184Z,72.30
2017-11-23T18:31:21.355Z,72.30
2017-11-23T18:33:48.924Z,71.60
2017-11-23T18:36:16.460Z,71.10
2017-11-23T18:38:44.045Z,70.20
2017-11-23T18:41:11.602Z,69.60
2017-11-23T18:43:39.211Z,69.70
2017-11-23T18:46:06.769Z,71.50
2017-11-23T18:48:36.253Z,69.90
2017-11-23T18:51:03.834Z,69.90
2017-11-23T18:53:31.452Z,70.70
2017-11-23T18:55:58.984Z,70.40
2017-11-23T18:58:27.730Z,72.80
2017-11-23T19:00:55.330Z,74.10
2017-11-23T19:03:23.703Z,71.40
2017-11-23T19:05:51.237Z,72.80
2017-11-23T19:08:20.450Z,73.80
2017-11-23T19:10:48.007Z,74.30
2017-11-23T19:13:15.571Z,74.00
2017-11-23T19:15:43.106Z,73.30
2017-11-23T19:18:11.461Z,73.50
2017-11-23T19:20:39.809Z,73.70
2017-11-23T19:23:07.429Z,73.70
2017-11-23T19:25:35.793Z,75.40
2017-11-23T19:28:03.435Z,75.40
2017-11-23T19:30:31.021Z,75.20
2017-11-23T19:32:58.634Z,75.10
2017-11-23T19:35:26.227Z,75.40
2017-11-23T19:37:54.615Z,72.70
2017-11-23T19:40:22.963Z,72.50
2017-11-23T19:42:50.561Z,72.50
2017-11-23T19:45:18.177Z,72.50
2017-11-23T19:47:45.759Z,73.10
2017-11-23T19:50:14.121Z,74.10
2017-11-23T19:52:42.497Z,74.70
2017-11-23T19:55:10.097Z,74.70
2017-11-23T19:57:37.691Z,75.70
2017-11-23T20:00:05.281Z,75.50
2017-11-23T20:02:32.858Z,76.00
2017-11-23T20:05:00.515Z,75.90
2017-11-23T20:07:28.094Z,74.70
2017-11-23T20:09:56.512Z,76.10
2017-11-23T20:12:24.869Z,75.60
2017-11-23T20:14:52.494Z,75.20
2017-11-23T20:17:20.084Z,75.90
2017-11-23T20:19:48.486Z,75.80
2017-11-23T20:22:16.790Z,75.70
2017-11-23T20:24:44.405Z,75.70
2017-11-23T20:27:11.992Z,76.10
2017-11-23T20:29:39.640Z,75.20
2017-11-23T20:32:07.226Z,75.10
2017-11-23T20:34:35.122Z,74.90
2017-11-23T20:37:02.703Z,74.20
2017-11-23T20:39:30.329Z,74.90
2017-11-23T20:41:57.918Z,75.00
2017-11-23T20:44:25.554Z,74.00
2017-11-23T20:46:53.135Z,75.20
2017-11-23T20:49:21.341Z,72.40
2017-11-23T20:51:48.939Z,73.60
2017-11-23T20:54:16.568Z,69.40
2017-11-23T20:56:45.202Z,66.90
2017-11-23T20:59:12.851Z,72.60
2017-11-23T21:01:40.434Z,69.10
2017-11-23T21:04:08.051Z,70.30
2017-11-23T21:06:35.645Z,70.80
2017-11-23T21:09:03.977Z,74.80
2017-11-23T21:11:32.364Z,74.70
2017-11-23T21:13:59.987Z,75.40
2017-11-23T21:16:27.541Z,74.60
2017-11-23T21:18:55.159Z,69.40
2017-11-23T21:21:22.753Z,72.20
2017-11-23T21:23:50.377Z,71.70
2017-11-23T21:26:18.007Z,73.00
2017-11-23T21:28:45.839Z,73.20
2017-11-23T21:31:14.417Z,73.80
2017-11-23T21:33:42.039Z,73.70
2017-11-23T21:36:09.614Z,71.10
2017-11-23T21:38:37.231Z,72.60
2017-11-23T21:41:04.877Z,71.00
2017-11-23T21:43:32.491Z,72.40
2017-11-23T21:46:00.798Z,73.90
2017-11-23T21:48:28.372Z,65.30
2017-11-23T21:50:55.909Z,64.60
2017-11-23T21:53:23.943Z,68.20
2017-11-23T21:55:52.236Z,67.60
2017-11-23T21:58:19.813Z,67.60
2017-11-23T22:00:48.224Z,67.40
2017-11-23T22:03:16.761Z,67.30
2017-11-23T22:05:44.311Z,69.70
2017-11-23T22:08:13.304Z,70.30
2017-11-23T22:10:42.460Z,71.20
2017-11-23T22:13:10.077Z,71.20
2017-11-23T22:15:37.602Z,68.90
2017-11-23T22:18:05.215Z,69.10
2017-11-23T22:20:32.792Z,69.60
2017-11-23T22:23:00.369Z,67.80
2017-11-23T22:25:28.973Z,69.00
2017-11-23T22:27:57.431Z,70.20
2017-11-23T22:30:25.052Z,69.30
2017-11-23T22:32:54.065Z,70.40
2017-11-23T22:35:21.672Z,71.00
2017-11-23T22:37:50.101Z,73.40
2017-11-23T22:40:19.387Z,72.90
2017-11-23T22:42:47.009Z,73.40
2017-11-23T22:45:14.590Z,70.80
2017-11-23T22:47:42.203Z,69.40
2017-11-23T22:50:09.749Z,62.40
2017-11-23T22:52:37.308Z,66.80
2017-11-23T22:55:04.893Z,68.00
2017-11-23T22:57:32.507Z,68.50
2017-11-23T23:00:00.045Z,69.10
2017-11-23T23:02:28.556Z,69.70
2017-11-23T23:04:56.135Z,69.70
2017-11-23T23:07:23.713Z,67.30
2017-11-23T23:09:51.299Z,68.70
2017-11-23T23:12:20.404Z,71.30
2017-11-23T23:14:47.933Z,71.30
2017-11-23T23:17:15.560Z,73.90
2017-11-23T23:19:43.872Z,72.70
2017-11-23T23:22:11.453Z,72.60
2017-11-23T23:24:39.776Z,73.40
2017-11-23T23:27:09.491Z,72.90
2017-11-23T23:29:37.070Z,73.70
2017-11-23T23:32:06.562Z,71.80
2017-11-23T23:34:34.096Z,68.60
2017-11-23T23:37:01.671Z,66.20
2017-11-23T23:39:30.141Z,68.20
2017-11-23T23:41:57.710Z,68.20
2017-11-23T23:44:25.345Z,71.20
2017-11-23T23:46:52.913Z,72.80
2017-11-23T23:49:20.440Z,73.90
2017-11-23T23:51:48.016Z,74.40
2017-11-23T23:54:15.557Z,74.10
2017-11-23T23:56:43.121Z,73.00
2017-11-23T23:59:11.475Z,73.90
